sensor_id;sensor_type;location;lat;lon;timestamp;pressure;altitude;pressure_sealevel;temperature;humidity
29197;BME280;62796;42.654;23.316;2023-02-26T00:02:23;93354.84;;;15.95;31.53
29197;BME280;62796;42.654;23.316;2023-02-26T00:04:48;93403.81;;;15.47;31.63
29197;BME280;62796;42.654;23.316;2023-02-26T00:07:13;93401.03;;;15.47;31.26
29197;BME280;62796;42.654;23.316;2023-02-26T00:09:39;93388.78;;;15.50;31.61
29197;BME280;62796;42.654;23.316;2023-02-26T00:12:04;93393.34;;;15.68;31.34
29197;BME280;62796;42.654;23.316;2023-02-26T00:14:30;93402.59;;;15.84;30.87
29197;BME280;62796;42.654;23.316;2023-02-26T00:19:39;93367.06;;;15.84;29.75
29197;BME280;62796;42.654;23.316;2023-02-26T00:22:05;93352.50;;;15.78;30.69
29197;BME280;62796;42.654;23.316;2023-02-26T00:24:31;93399.78;;;15.76;30.43
29197;BME280;62796;42.654;23.316;2023-02-26T00:26:56;93369.75;;;15.69;30.49
29197;BME280;62796;42.654;23.316;2023-02-26T00:29:21;93449.41;;;15.49;30.49
29197;BME280;62796;42.654;23.316;2023-02-26T00:31:47;93373.91;;;15.34;30.57
29197;BME280;62796;42.654;23.316;2023-02-26T00:34:13;93359.53;;;15.30;30.81
29197;BME280;62796;42.654;23.316;2023-02-26T00:36:54;93363.69;;;15.37;31.01
29197;BME280;62796;42.654;23.316;2023-02-26T00:42:10;93369.06;;;15.35;30.68
29197;BME280;62796;42.654;23.316;2023-02-26T00:44:36;93361.50;;;15.43;30.35
29197;BME280;62796;42.654;23.316;2023-02-26T00:49:53;93351.38;;;15.53;30.66
29197;BME280;62796;42.654;23.316;2023-02-26T00:52:26;93361.97;;;15.47;30.59
29197;BME280;62796;42.654;23.316;2023-02-26T00:54:53;93344.50;;;15.54;30.16
29197;BME280;62796;42.654;23.316;2023-02-26T00:57:18;93371.44;;;15.31;30.58
29197;BME280;62796;42.654;23.316;2023-02-26T00:59:44;93337.41;;;15.53;28.94
29197;BME280;62796;42.654;23.316;2023-02-26T01:02:09;93366.84;;;15.54;28.98
29197;BME280;62796;42.654;23.316;2023-02-26T01:04:35;93344.16;;;15.58;29.49
29197;BME280;62796;42.654;23.316;2023-02-26T01:07:01;93375.81;;;15.60;29.49
29197;BME280;62796;42.654;23.316;2023-02-26T01:09:29;93361.66;;;15.58;29.59
29197;BME280;62796;42.654;23.316;2023-02-26T01:11:58;93332.53;;;15.46;28.67
29197;BME280;62796;42.654;23.316;2023-02-26T01:14:28;93349.44;;;15.69;28.71
29197;BME280;62796;42.654;23.316;2023-02-26T01:19:52;93312.63;;;15.70;29.40
29197;BME280;62796;42.654;23.316;2023-02-26T01:22:22;93311.72;;;15.75;29.77
29197;BME280;62796;42.654;23.316;2023-02-26T01:24:53;93351.38;;;15.74;29.47
29197;BME280;62796;42.654;23.316;2023-02-26T01:27:20;93329.38;;;15.70;29.84
29197;BME280;62796;42.654;23.316;2023-02-26T01:29:45;93311.88;;;15.70;30.09
29197;BME280;62796;42.654;23.316;2023-02-26T01:32:18;93328.06;;;15.71;30.05
29197;BME280;62796;42.654;23.316;2023-02-26T01:34:58;93318.16;;;15.63;30.41
29197;BME280;62796;42.654;23.316;2023-02-26T01:37:41;93297.78;;;15.47;29.91
29197;BME280;62796;42.654;23.316;2023-02-26T01:43:06;93306.69;;;15.25;30.87
29197;BME280;62796;42.654;23.316;2023-02-26T01:45:38;93300.81;;;15.36;30.52
29197;BME280;62796;42.654;23.316;2023-02-26T01:48:24;93306.25;;;15.41;30.39
29197;BME280;62796;42.654;23.316;2023-02-26T01:50:55;93298.16;;;15.30;30.47
29197;BME280;62796;42.654;23.316;2023-02-26T01:53:23;93281.38;;;15.23;30.17
29197;BME280;62796;42.654;23.316;2023-02-26T01:55:54;93269.03;;;15.39;30.18
29197;BME280;62796;42.654;23.316;2023-02-26T01:58:21;93288.84;;;15.28;29.86
29197;BME280;62796;42.654;23.316;2023-02-26T02:00:48;93281.31;;;15.15;29.88
29197;BME280;62796;42.654;23.316;2023-02-26T02:03:13;93286.28;;;14.88;30.61
29197;BME280;62796;42.654;23.316;2023-02-26T02:05:56;93218.59;;;15.09;30.09
29197;BME280;62796;42.654;23.316;2023-02-26T02:08:23;93236.22;;;15.04;30.01
29197;BME280;62796;42.654;23.316;2023-02-26T02:10:50;93265.28;;;15.08;29.91
29197;BME280;62796;42.654;23.316;2023-02-26T02:13:19;93274.19;;;15.07;29.31
29197;BME280;62796;42.654;23.316;2023-02-26T02:19:23;93223.66;;;15.10;29.14
29197;BME280;62796;42.654;23.316;2023-02-26T02:27:34;93266.50;;;15.00;29.24
29197;BME280;62796;42.654;23.316;2023-02-26T02:30:13;93245.88;;;15.03;29.14
29197;BME280;62796;42.654;23.316;2023-02-26T02:32:51;93238.53;;;15.13;28.81
29197;BME280;62796;42.654;23.316;2023-02-26T02:40:41;93260.31;;;14.93;28.81
29197;BME280;62796;42.654;23.316;2023-02-26T02:43:24;93254.72;;;14.93;28.74
29197;BME280;62796;42.654;23.316;2023-02-26T02:45:57;93256.69;;;15.06;28.69
29197;BME280;62796;42.654;23.316;2023-02-26T02:48:30;93310.22;;;15.05;28.68
29197;BME280;62796;42.654;23.316;2023-02-26T02:51:01;93299.75;;;14.77;29.30
29197;BME280;62796;42.654;23.316;2023-02-26T02:53:33;93265.41;;;15.03;28.85
29197;BME280;62796;42.654;23.316;2023-02-26T02:56:15;93294.97;;;15.06;29.21
29197;BME280;62796;42.654;23.316;2023-02-26T02:58:46;93272.06;;;15.00;28.63
29197;BME280;62796;42.654;23.316;2023-02-26T03:01:14;93264.41;;;14.92;28.88
29197;BME280;62796;42.654;23.316;2023-02-26T03:06:18;93281.19;;;15.00;28.95
29197;BME280;62796;42.654;23.316;2023-02-26T03:08:45;93273.25;;;14.83;29.16
29197;BME280;62796;42.654;23.316;2023-02-26T03:11:12;93305.59;;;14.86;29.00
29197;BME280;62796;42.654;23.316;2023-02-26T03:13:38;93274.38;;;14.88;28.84
29197;BME280;62796;42.654;23.316;2023-02-26T03:18:52;93273.25;;;14.83;28.32
29197;BME280;62796;42.654;23.316;2023-02-26T03:21:29;93286.91;;;14.94;28.27
29197;BME280;62796;42.654;23.316;2023-02-26T03:26:46;93300.84;;;14.94;28.57
29197;BME280;62796;42.654;23.316;2023-02-26T03:30:02;93276.88;;;14.78;28.96
29197;BME280;62796;42.654;23.316;2023-02-26T03:32:14;93270.91;;;14.74;28.99
29197;BME280;62796;42.654;23.316;2023-02-26T03:34:50;93291.03;;;14.80;28.74
29197;BME280;62796;42.654;23.316;2023-02-26T03:38:00;93276.03;;;14.83;28.84
29197;BME280;62796;42.654;23.316;2023-02-26T03:40:09;93275.94;;;14.96;28.52
29197;BME280;62796;42.654;23.316;2023-02-26T03:42:50;93274.25;;;14.93;28.86
29197;BME280;62796;42.654;23.316;2023-02-26T03:45:22;93273.84;;;14.89;28.46
29197;BME280;62796;42.654;23.316;2023-02-26T03:47:51;93255.56;;;15.02;28.27
29197;BME280;62796;42.654;23.316;2023-02-26T03:50:26;93298.19;;;15.10;28.65
29197;BME280;62796;42.654;23.316;2023-02-26T03:52:53;93261.81;;;14.74;29.00
29197;BME280;62796;42.654;23.316;2023-02-26T03:55:40;93243.19;;;14.89;28.80
29197;BME280;62796;42.654;23.316;2023-02-26T03:58:07;93227.84;;;14.75;29.03
29197;BME280;62796;42.654;23.316;2023-02-26T04:00:34;93256.78;;;14.72;28.79
29197;BME280;62796;42.654;23.316;2023-02-26T04:03:39;93273.28;;;14.70;29.11
29197;BME280;62796;42.654;23.316;2023-02-26T04:06:07;93270.91;;;14.74;29.30
29197;BME280;62796;42.654;23.316;2023-02-26T04:08:33;93234.56;;;14.59;29.44
29197;BME280;62796;42.654;23.316;2023-02-26T04:11:06;93239.94;;;14.57;29.66
29197;BME280;62796;42.654;23.316;2023-02-26T04:13:33;93228.50;;;14.68;29.51
29197;BME280;62796;42.654;23.316;2023-02-26T04:15:58;93236.66;;;14.66;29.41
29197;BME280;62796;42.654;23.316;2023-02-26T04:18:24;93240.78;;;14.73;29.12
29197;BME280;62796;42.654;23.316;2023-02-26T04:20:49;93247.34;;;14.75;29.02
29197;BME280;62796;42.654;23.316;2023-02-26T04:23:15;93248.44;;;14.93;28.85
29197;BME280;62796;42.654;23.316;2023-02-26T04:25:40;93242.63;;;14.70;28.74
29197;BME280;62796;42.654;23.316;2023-02-26T04:28:06;93237.88;;;14.78;28.78
29197;BME280;62796;42.654;23.316;2023-02-26T04:30:31;93203.22;;;14.66;28.70
29197;BME280;62796;42.654;23.316;2023-02-26T04:32:56;93238.28;;;14.82;28.47
29197;BME280;62796;42.654;23.316;2023-02-26T04:35:22;93238.91;;;14.68;28.88
29197;BME280;62796;42.654;23.316;2023-02-26T04:37:47;93209.47;;;14.59;28.50
29197;BME280;62796;42.654;23.316;2023-02-26T04:40:13;93211.09;;;14.55;28.64
29197;BME280;62796;42.654;23.316;2023-02-26T04:42:38;93203.16;;;14.59;28.53
29197;BME280;62796;42.654;23.316;2023-02-26T04:45:04;93219.72;;;14.64;28.37
29197;BME280;62796;42.654;23.316;2023-02-26T04:47:30;93222.50;;;14.64;28.47
29197;BME280;62796;42.654;23.316;2023-02-26T04:49:55;93231.75;;;14.59;28.49
29197;BME280;62796;42.654;23.316;2023-02-26T04:52:21;93183.91;;;14.68;28.02
29197;BME280;62796;42.654;23.316;2023-02-26T04:54:46;93204.31;;;14.63;28.29
29197;BME280;62796;42.654;23.316;2023-02-26T04:57:11;93214.72;;;14.63;28.02
29197;BME280;62796;42.654;23.316;2023-02-26T04:59:37;93229.94;;;14.62;27.77
29197;BME280;62796;42.654;23.316;2023-02-26T05:02:05;93185.00;;;14.65;27.89
29197;BME280;62796;42.654;23.316;2023-02-26T05:04:31;93221.03;;;14.63;27.73
29197;BME280;62796;42.654;23.316;2023-02-26T05:06:56;93180.94;;;14.66;27.56
29197;BME280;62796;42.654;23.316;2023-02-26T05:09:22;93161.63;;;14.68;27.39
29197;BME280;62796;42.654;23.316;2023-02-26T05:11:48;93138.66;;;14.75;27.35
29197;BME280;62796;42.654;23.316;2023-02-26T05:14:14;93155.91;;;14.74;27.22
29197;BME280;62796;42.654;23.316;2023-02-26T05:16:39;93147.00;;;14.75;27.32
29197;BME280;62796;42.654;23.316;2023-02-26T05:19:05;93170.94;;;14.71;27.60
29197;BME280;62796;42.654;23.316;2023-02-26T05:21:30;93180.25;;;14.73;27.73
29197;BME280;62796;42.654;23.316;2023-02-26T05:23:56;93166.53;;;14.75;27.71
29197;BME280;62796;42.654;23.316;2023-02-26T05:26:22;93174.53;;;14.79;27.60
29197;BME280;62796;42.654;23.316;2023-02-26T05:28:48;93201.84;;;14.80;27.29
29197;BME280;62796;42.654;23.316;2023-02-26T05:31:14;93199.97;;;14.75;27.66
29197;BME280;62796;42.654;23.316;2023-02-26T05:33:40;93220.06;;;14.81;27.65
29197;BME280;62796;42.654;23.316;2023-02-26T05:36:05;93160.25;;;14.82;27.42
29197;BME280;62796;42.654;23.316;2023-02-26T05:38:31;93162.88;;;14.88;27.32
29197;BME280;62796;42.654;23.316;2023-02-26T05:40:57;93125.03;;;14.92;27.31
29197;BME280;62796;42.654;23.316;2023-02-26T05:43:23;93146.56;;;14.92;27.26
29197;BME280;62796;42.654;23.316;2023-02-26T05:45:50;93109.22;;;14.95;27.11
29197;BME280;62796;42.654;23.316;2023-02-26T05:48:15;93167.22;;;14.96;27.04
29197;BME280;62796;42.654;23.316;2023-02-26T05:50:41;93224.66;;;15.00;27.08
29197;BME280;62796;42.654;23.316;2023-02-26T05:53:06;93135.66;;;15.02;27.08
29197;BME280;62796;42.654;23.316;2023-02-26T05:55:32;93125.81;;;15.01;27.07
29197;BME280;62796;42.654;23.316;2023-02-26T05:57:57;93138.06;;;14.98;27.01
29197;BME280;62796;42.654;23.316;2023-02-26T06:00:22;93145.16;;;15.06;27.05
29197;BME280;62796;42.654;23.316;2023-02-26T06:02:48;93137.56;;;15.07;26.97
29197;BME280;62796;42.654;23.316;2023-02-26T06:05:13;93137.16;;;15.03;27.07
29197;BME280;62796;42.654;23.316;2023-02-26T06:07:39;93148.91;;;15.09;26.78
29197;BME280;62796;42.654;23.316;2023-02-26T06:10:05;93146.09;;;15.09;26.96
29197;BME280;62796;42.654;23.316;2023-02-26T06:12:33;93179.78;;;15.11;26.88
29197;BME280;62796;42.654;23.316;2023-02-26T06:14:58;93162.19;;;15.23;26.51
29197;BME280;62796;42.654;23.316;2023-02-26T06:17:24;93142.13;;;15.25;26.22
29197;BME280;62796;42.654;23.316;2023-02-26T06:19:49;93157.00;;;15.27;26.04
29197;BME280;62796;42.654;23.316;2023-02-26T06:22:14;93176.59;;;15.35;26.07
29197;BME280;62796;42.654;23.316;2023-02-26T06:24:40;93182.38;;;15.37;26.23
29197;BME280;62796;42.654;23.316;2023-02-26T06:27:05;93147.31;;;15.49;25.49
29197;BME280;62796;42.654;23.316;2023-02-26T06:29:31;93194.94;;;15.51;25.70
29197;BME280;62796;42.654;23.316;2023-02-26T06:31:56;93191.78;;;15.55;25.68
29197;BME280;62796;42.654;23.316;2023-02-26T06:34:22;93145.84;;;15.56;25.51
29197;BME280;62796;42.654;23.316;2023-02-26T06:36:48;93177.50;;;15.58;25.64
29197;BME280;62796;42.654;23.316;2023-02-26T06:39:13;93165.81;;;15.67;25.55
29197;BME280;62796;42.654;23.316;2023-02-26T06:41:39;93154.44;;;15.65;25.51
29197;BME280;62796;42.654;23.316;2023-02-26T06:44:04;93144.22;;;15.68;25.09
29197;BME280;62796;42.654;23.316;2023-02-26T06:46:30;93170.47;;;15.72;25.21
29197;BME280;62796;42.654;23.316;2023-02-26T06:48:55;93167.69;;;15.72;25.16
29197;BME280;62796;42.654;23.316;2023-02-26T06:51:20;93162.28;;;15.74;24.49
29197;BME280;62796;42.654;23.316;2023-02-26T06:53:46;93165.47;;;15.78;24.66
29197;BME280;62796;42.654;23.316;2023-02-26T06:56:11;93128.47;;;15.85;24.84
29197;BME280;62796;42.654;23.316;2023-02-26T06:58:37;93133.69;;;15.89;24.56
29197;BME280;62796;42.654;23.316;2023-02-26T07:01:03;93226.72;;;15.84;24.70
29197;BME280;62796;42.654;23.316;2023-02-26T07:03:29;93155.47;;;15.90;24.59
29197;BME280;62796;42.654;23.316;2023-02-26T07:05:55;93133.53;;;15.94;24.46
29197;BME280;62796;42.654;23.316;2023-02-26T07:08:20;93100.22;;;16.04;24.29
29197;BME280;62796;42.654;23.316;2023-02-26T07:10:46;93147.31;;;16.08;24.47
29197;BME280;62796;42.654;23.316;2023-02-26T07:13:14;93080.84;;;15.98;24.54
29197;BME280;62796;42.654;23.316;2023-02-26T07:15:39;93109.16;;;16.02;24.79
29197;BME280;62796;42.654;23.316;2023-02-26T07:18:04;93106.38;;;16.02;24.82
29197;BME280;62796;42.654;23.316;2023-02-26T07:20:30;93118.28;;;16.03;24.68
29197;BME280;62796;42.654;23.316;2023-02-26T07:22:55;93105.81;;;16.12;24.64
29197;BME280;62796;42.654;23.316;2023-02-26T07:25:21;93065.59;;;16.22;24.25
29197;BME280;62796;42.654;23.316;2023-02-26T07:27:47;93135.66;;;16.32;24.03
29197;BME280;62796;42.654;23.316;2023-02-26T07:30:13;93092.63;;;16.35;24.15
29197;BME280;62796;42.654;23.316;2023-02-26T07:32:38;93167.31;;;16.34;23.71
29197;BME280;62796;42.654;23.316;2023-02-26T07:35:04;93129.31;;;16.24;24.03
29197;BME280;62796;42.654;23.316;2023-02-26T07:37:30;93135.28;;;16.43;23.73
29197;BME280;62796;42.654;23.316;2023-02-26T07:39:55;93113.69;;;16.43;23.28
29197;BME280;62796;42.654;23.316;2023-02-26T07:42:21;93148.94;;;16.54;23.21
29197;BME280;62796;42.654;23.316;2023-02-26T07:44:46;93158.06;;;16.62;23.45
29197;BME280;62796;42.654;23.316;2023-02-26T07:47:12;93122.69;;;16.72;23.20
29197;BME280;62796;42.654;23.316;2023-02-26T07:49:38;93121.00;;;16.69;23.05
29197;BME280;62796;42.654;23.316;2023-02-26T07:52:03;93132.00;;;16.75;22.81
29197;BME280;62796;42.654;23.316;2023-02-26T07:54:29;93153.22;;;16.85;23.20
29197;BME280;62796;42.654;23.316;2023-02-26T07:56:55;93134.22;;;16.91;22.95
29197;BME280;62796;42.654;23.316;2023-02-26T07:59:20;93081.63;;;16.97;22.46
29197;BME280;62796;42.654;23.316;2023-02-26T08:01:45;93236.94;;;16.98;22.54
29197;BME280;62796;42.654;23.316;2023-02-26T08:04:11;93166.28;;;16.98;22.63
29197;BME280;62796;42.654;23.316;2023-02-26T08:06:36;93150.25;;;16.98;22.68
29197;BME280;62796;42.654;23.316;2023-02-26T08:09:02;93132.69;;;17.05;22.68
29197;BME280;62796;42.654;23.316;2023-02-26T08:11:28;93195.16;;;16.85;22.42
29197;BME280;62796;42.654;23.316;2023-02-26T08:13:53;93149.50;;;16.98;22.64
29197;BME280;62796;42.654;23.316;2023-02-26T08:16:19;93163.69;;;16.92;22.81
29197;BME280;62796;42.654;23.316;2023-02-26T08:18:44;93152.84;;;16.74;23.09
29197;BME280;62796;42.654;23.316;2023-02-26T08:21:10;93154.53;;;16.92;22.94
29197;BME280;62796;42.654;23.316;2023-02-26T08:23:36;93141.09;;;17.05;22.80
29197;BME280;62796;42.654;23.316;2023-02-26T08:26:07;93142.75;;;17.24;22.26
29197;BME280;62796;42.654;23.316;2023-02-26T08:28:33;93159.53;;;17.08;22.25
29197;BME280;62796;42.654;23.316;2023-02-26T08:30:59;93177.78;;;17.40;22.23
29197;BME280;62796;42.654;23.316;2023-02-26T08:33:25;93131.53;;;17.39;22.06
29197;BME280;62796;42.654;23.316;2023-02-26T08:35:51;93173.53;;;17.24;21.94
29197;BME280;62796;42.654;23.316;2023-02-26T08:38:18;93149.44;;;17.36;21.89
29197;BME280;62796;42.654;23.316;2023-02-26T08:40:43;93146.13;;;17.22;22.24
29197;BME280;62796;42.654;23.316;2023-02-26T08:43:09;93169.94;;;17.38;22.30
29197;BME280;62796;42.654;23.316;2023-02-26T08:45:36;93216.22;;;17.54;21.97
29197;BME280;62796;42.654;23.316;2023-02-26T08:48:01;93227.44;;;17.32;21.59
29197;BME280;62796;42.654;23.316;2023-02-26T08:50:27;93203.38;;;17.13;22.17
29197;BME280;62796;42.654;23.316;2023-02-26T08:52:53;93175.97;;;17.20;21.94
29197;BME280;62796;42.654;23.316;2023-02-26T08:55:18;93221.06;;;17.24;21.67
29197;BME280;62796;42.654;23.316;2023-02-26T08:57:44;93176.88;;;17.30;21.87
29197;BME280;62796;42.654;23.316;2023-02-26T09:00:09;93195.50;;;17.50;21.75
29197;BME280;62796;42.654;23.316;2023-02-26T09:02:36;93209.44;;;17.88;21.44
29197;BME280;62796;42.654;23.316;2023-02-26T09:05:02;93166.75;;;18.12;21.07
29197;BME280;62796;42.654;23.316;2023-02-26T09:07:28;93201.19;;;17.97;20.95
29197;BME280;62796;42.654;23.316;2023-02-26T09:09:53;93210.22;;;17.73;20.51
29197;BME280;62796;42.654;23.316;2023-02-26T09:12:18;93212.34;;;18.12;20.79
29197;BME280;62796;42.654;23.316;2023-02-26T09:14:44;93244.69;;;18.46;20.21
29197;BME280;62796;42.654;23.316;2023-02-26T09:17:09;93226.94;;;18.03;20.09
29197;BME280;62796;42.654;23.316;2023-02-26T09:19:35;93245.72;;;18.25;19.82
29197;BME280;62796;42.654;23.316;2023-02-26T09:22:00;93208.88;;;18.37;19.88
29197;BME280;62796;42.654;23.316;2023-02-26T09:24:26;93215.59;;;18.34;19.81
29197;BME280;62796;42.654;23.316;2023-02-26T09:26:51;93247.78;;;18.65;19.56
29197;BME280;62796;42.654;23.316;2023-02-26T09:29:16;93214.50;;;18.69;19.69
29197;BME280;62796;42.654;23.316;2023-02-26T09:31:42;93221.25;;;18.91;19.36
29197;BME280;62796;42.654;23.316;2023-02-26T09:34:07;93229.00;;;19.57;18.74
29197;BME280;62796;42.654;23.316;2023-02-26T09:36:33;93214.19;;;19.56;18.40
29197;BME280;62796;42.654;23.316;2023-02-26T09:38:58;93221.19;;;19.89;18.18
29197;BME280;62796;42.654;23.316;2023-02-26T09:41:33;93223.41;;;20.08;17.95
29197;BME280;62796;42.654;23.316;2023-02-26T09:51:41;93213.66;;;20.26;17.61
29197;BME280;62796;42.654;23.316;2023-02-26T09:54:20;93219.94;;;20.34;17.66
29197;BME280;62796;42.654;23.316;2023-02-26T09:56:47;93252.44;;;20.45;17.48
29197;BME280;62796;42.654;23.316;2023-02-26T09:59:12;93247.69;;;20.65;17.41
29197;BME280;62796;42.654;23.316;2023-02-26T10:07:17;93201.75;;;20.18;18.56
29197;BME280;62796;42.654;23.316;2023-02-26T10:12:25;93195.66;;;20.29;18.10
29197;BME280;62796;42.654;23.316;2023-02-26T10:15:12;93185.78;;;20.21;18.54
29197;BME280;62796;42.654;23.316;2023-02-26T10:17:55;93211.84;;;20.21;18.44
29197;BME280;62796;42.654;23.316;2023-02-26T10:23:07;93178.78;;;19.61;19.17
29197;BME280;62796;42.654;23.316;2023-02-26T10:25:48;93175.72;;;19.24;19.34
29197;BME280;62796;42.654;23.316;2023-02-26T10:36:23;93176.41;;;19.32;19.32
29197;BME280;62796;42.654;23.316;2023-02-26T10:39:00;93165.47;;;19.02;20.07
29197;BME280;62796;42.654;23.316;2023-02-26T10:41:30;93169.84;;;19.13;20.21
29197;BME280;62796;42.654;23.316;2023-02-26T10:49:13;93150.63;;;18.60;20.62
29197;BME280;62796;42.654;23.316;2023-02-26T10:51:43;93198.63;;;18.64;20.49
29197;BME280;62796;42.654;23.316;2023-02-26T10:54:35;93188.63;;;18.46;20.39
29197;BME280;62796;42.654;23.316;2023-02-26T10:57:02;93147.53;;;18.41;20.41
29197;BME280;62796;42.654;23.316;2023-02-26T10:59:30;93193.59;;;18.22;20.98
29197;BME280;62796;42.654;23.316;2023-02-26T11:01:56;93149.63;;;18.00;21.92
29197;BME280;62796;42.654;23.316;2023-02-26T11:04:24;93169.47;;;17.87;22.17
29197;BME280;62796;42.654;23.316;2023-02-26T11:06:59;93135.13;;;17.87;22.29
29197;BME280;62796;42.654;23.316;2023-02-26T11:11:55;93156.88;;;17.63;22.61
29197;BME280;62796;42.654;23.316;2023-02-26T11:14:21;93120.28;;;17.54;21.73
29197;BME280;62796;42.654;23.316;2023-02-26T11:16:52;93099.59;;;17.57;21.84
29197;BME280;62796;42.654;23.316;2023-02-26T11:19:24;93122.91;;;17.44;22.07
29197;BME280;62796;42.654;23.316;2023-02-26T11:21:51;93099.81;;;17.36;22.67
29197;BME280;62796;42.654;23.316;2023-02-26T11:24:31;93169.22;;;17.30;22.80
29197;BME280;62796;42.654;23.316;2023-02-26T11:26:59;93163.44;;;17.21;23.18
29197;BME280;62796;42.654;23.316;2023-02-26T11:29:34;93170.38;;;17.20;23.41
29197;BME280;62796;42.654;23.316;2023-02-26T11:32:00;93123.38;;;17.03;23.83
29197;BME280;62796;42.654;23.316;2023-02-26T11:34:28;93113.91;;;16.98;24.13
29197;BME280;62796;42.654;23.316;2023-02-26T11:36:56;93150.59;;;17.10;23.77
29197;BME280;62796;42.654;23.316;2023-02-26T11:39:25;93101.75;;;17.11;24.15
29197;BME280;62796;42.654;23.316;2023-02-26T11:41:54;93150.22;;;17.13;24.26
29197;BME280;62796;42.654;23.316;2023-02-26T11:44:33;93151.91;;;17.17;24.32
29197;BME280;62796;42.654;23.316;2023-02-26T11:47:04;93158.06;;;17.23;24.68
29197;BME280;62796;42.654;23.316;2023-02-26T11:49:30;93160.84;;;17.30;24.46
29197;BME280;62796;42.654;23.316;2023-02-26T11:54:28;93198.34;;;17.20;25.09
29197;BME280;62796;42.654;23.316;2023-02-26T11:57:02;93205.41;;;17.21;25.23
29197;BME280;62796;42.654;23.316;2023-02-26T11:59:31;93238.81;;;17.03;26.16
29197;BME280;62796;42.654;23.316;2023-02-26T12:02:02;93233.41;;;17.21;26.49
29197;BME280;62796;42.654;23.316;2023-02-26T12:04:30;93233.94;;;17.27;27.03
29197;BME280;62796;42.654;23.316;2023-02-26T12:06:56;93238.06;;;17.41;27.04
29197;BME280;62796;42.654;23.316;2023-02-26T12:09:23;93236.56;;;17.25;27.38
29197;BME280;62796;42.654;23.316;2023-02-26T12:20:23;93241.03;;;17.35;24.65
29197;BME280;62796;42.654;23.316;2023-02-26T12:23:14;93202.41;;;17.49;25.21
29197;BME280;62796;42.654;23.316;2023-02-26T12:37:14;93264.38;;;17.38;27.43
29197;BME280;62796;42.654;23.316;2023-02-26T12:45:30;93302.28;;;18.32;26.99
29197;BME280;62796;42.654;23.316;2023-02-26T12:48:19;93306.25;;;18.76;26.74
29197;BME280;62796;42.654;23.316;2023-02-26T13:21:35;93328.47;;;18.19;28.15
29197;BME280;62796;42.654;23.316;2023-02-26T13:24:15;93324.47;;;17.82;28.37
29197;BME280;62796;42.654;23.316;2023-02-26T13:26:43;93290.78;;;18.05;28.39
29197;BME280;62796;42.654;23.316;2023-02-26T13:29:23;93316.94;;;18.07;27.80
29197;BME280;62796;42.654;23.316;2023-02-26T13:31:52;93294.88;;;18.11;27.62
29197;BME280;62796;42.654;23.316;2023-02-26T13:39:49;93266.59;;;18.79;26.35
29197;BME280;62796;42.654;23.316;2023-02-26T13:55:50;93289.34;;;17.51;25.96
29197;BME280;62796;42.654;23.316;2023-02-26T14:01:07;93276.28;;;17.53;26.93
29197;BME280;62796;42.654;23.316;2023-02-26T14:03:45;93266.22;;;17.43;27.29
29197;BME280;62796;42.654;23.316;2023-02-26T14:14:44;93292.31;;;17.98;25.57
29197;BME280;62796;42.654;23.316;2023-02-26T14:19:39;93284.50;;;17.74;25.03
29197;BME280;62796;42.654;23.316;2023-02-26T14:27:43;93266.78;;;17.79;24.86
29197;BME280;62796;42.654;23.316;2023-02-26T14:35:18;93283.72;;;17.96;24.43
29197;BME280;62796;42.654;23.316;2023-02-26T14:38:03;93284.88;;;17.86;24.61
29197;BME280;62796;42.654;23.316;2023-02-26T14:40:53;93300.22;;;17.62;24.78
29197;BME280;62796;42.654;23.316;2023-02-26T14:43:43;93275.94;;;17.72;24.99
29197;BME280;62796;42.654;23.316;2023-02-26T14:46:09;93296.06;;;17.78;24.88
29197;BME280;62796;42.654;23.316;2023-02-26T14:48:36;93288.41;;;17.86;24.91
29197;BME280;62796;42.654;23.316;2023-02-26T14:53:59;93302.44;;;17.71;23.73
29197;BME280;62796;42.654;23.316;2023-02-26T14:59:12;93322.38;;;17.90;25.13
29197;BME280;62796;42.654;23.316;2023-02-26T15:09:56;93310.41;;;18.05;25.19
29197;BME280;62796;42.654;23.316;2023-02-26T15:15:46;93322.56;;;17.92;24.70
29197;BME280;62796;42.654;23.316;2023-02-26T15:21:07;93334.28;;;18.13;25.67
29197;BME280;62796;42.654;23.316;2023-02-26T15:26:03;93345.75;;;17.70;26.15
29197;BME280;62796;42.654;23.316;2023-02-26T15:28:36;93351.19;;;17.68;27.60
29197;BME280;62796;42.654;23.316;2023-02-26T15:31:05;93351.31;;;17.47;28.32
29197;BME280;62796;42.654;23.316;2023-02-26T15:33:32;93349.06;;;17.46;28.72
29197;BME280;62796;42.654;23.316;2023-02-26T15:35:58;93348.47;;;17.09;29.64
29197;BME280;62796;42.654;23.316;2023-02-26T15:38:25;93360.94;;;16.93;29.13
29197;BME280;62796;42.654;23.316;2023-02-26T15:40:52;93357.97;;;17.06;28.56
29197;BME280;62796;42.654;23.316;2023-02-26T15:43:24;93358.53;;;17.05;28.70
29197;BME280;62796;42.654;23.316;2023-02-26T15:45:55;93355.19;;;17.22;28.25
29197;BME280;62796;42.654;23.316;2023-02-26T15:50:56;93364.00;;;17.48;27.14
29197;BME280;62796;42.654;23.316;2023-02-26T15:53:29;93380.25;;;17.50;27.08
29197;BME280;62796;42.654;23.316;2023-02-26T15:55:57;93417.38;;;17.43;27.18
29197;BME280;62796;42.654;23.316;2023-02-26T16:01:01;93413.63;;;17.48;27.00
29197;BME280;62796;42.654;23.316;2023-02-26T16:03:30;93407.47;;;17.42;27.25
29197;BME280;62796;42.654;23.316;2023-02-26T16:05:57;93386.41;;;17.41;27.25
29197;BME280;62796;42.654;23.316;2023-02-26T16:08:24;93384.53;;;17.51;27.02
29197;BME280;62796;42.654;23.316;2023-02-26T16:10:51;93403.00;;;17.54;27.40
29197;BME280;62796;42.654;23.316;2023-02-26T16:13:25;93401.75;;;17.55;27.28
29197;BME280;62796;42.654;23.316;2023-02-26T16:15:51;93403.00;;;17.54;27.12
29197;BME280;62796;42.654;23.316;2023-02-26T16:18:21;93406.75;;;17.56;27.31
29197;BME280;62796;42.654;23.316;2023-02-26T16:20:49;93409.94;;;17.53;27.27